createdAt,value
2023-02-17T00:01:47.496Z,125.30
2023-02-17T00:07:19.328Z,120.82
2023-02-17T00:09:54.076Z,124.25
2023-02-17T00:12:31.377Z,114.93
2023-02-17T00:18:19.705Z,121.65
2023-02-17T00:20:59.785Z,129.93
2023-02-17T00:28:59.984Z,129.90
2023-02-17T00:31:34.881Z,127.63
2023-02-17T00:34:40.983Z,137.85
2023-02-17T00:38:12.817Z,129.82
2023-02-17T00:40:48.538Z,121.30
2023-02-17T00:43:54.116Z,125.65
2023-02-17T00:46:36.613Z,126.75
2023-02-17T00:52:49.925Z,129.25
2023-02-17T01:01:26.618Z,132.23
2023-02-17T01:16:42.422Z,135.00
2023-02-17T01:19:27.909Z,142.23
2023-02-17T01:22:38.064Z,129.45
2023-02-17T01:25:28.895Z,139.18
2023-02-17T01:28:03.412Z,142.65
2023-02-17T01:30:46.746Z,135.38
2023-02-17T01:33:21.437Z,139.75
2023-02-17T01:35:56.114Z,131.85
2023-02-17T01:41:41.143Z,151.73
2023-02-17T01:49:50.763Z,146.20
2023-02-17T01:52:49.392Z,153.38
2023-02-17T01:55:35.822Z,155.30
2023-02-17T01:58:23.192Z,164.95
2023-02-17T02:01:12.011Z,164.05
2023-02-17T02:03:58.097Z,155.85
2023-02-17T02:06:37.086Z,156.10
2023-02-17T02:12:13.828Z,163.25
2023-02-17T02:15:22.442Z,159.02
2023-02-17T02:18:13.524Z,167.48
2023-02-17T02:20:55.916Z,164.82
2023-02-17T02:26:57.878Z,168.70
2023-02-17T02:30:02.963Z,168.10
2023-02-17T02:33:05.274Z,165.70
2023-02-17T02:35:50.661Z,155.98
2023-02-17T02:38:29.815Z,161.65
2023-02-17T02:41:21.618Z,164.07
2023-02-17T02:44:26.577Z,163.45
2023-02-17T02:47:21.889Z,159.88
2023-02-17T02:50:13.356Z,155.07
2023-02-17T02:55:48.243Z,155.20
2023-02-17T02:58:48.114Z,161.77
2023-02-17T03:01:47.135Z,153.18
2023-02-17T03:04:50.739Z,154.55
2023-02-17T03:10:45.453Z,143.07
2023-02-17T03:13:27.887Z,147.30
2023-02-17T03:16:11.934Z,147.18
2023-02-17T03:19:25.590Z,147.77
2023-02-17T03:22:28.114Z,140.68
2023-02-17T03:28:03.820Z,138.98
2023-02-17T03:31:00.316Z,139.50
2023-02-17T03:34:06.011Z,135.00
2023-02-17T03:37:03.966Z,132.07
2023-02-17T03:40:11.558Z,133.25
2023-02-17T03:43:07.921Z,121.75
2023-02-17T03:48:38.638Z,140.05
2023-02-17T03:51:21.795Z,125.47
2023-02-17T03:59:55.523Z,145.32
2023-02-17T04:03:05.431Z,148.50
2023-02-17T04:05:34.685Z,147.37
2023-02-17T04:08:52.515Z,145.75
2023-02-17T04:11:43.048Z,153.55
2023-02-17T04:14:54.820Z,153.93
2023-02-17T04:17:48.719Z,154.77
2023-02-17T04:20:32.584Z,150.25
2023-02-17T04:23:17.849Z,144.15
2023-02-17T04:26:17.606Z,139.52
2023-02-17T04:29:07.693Z,152.23
2023-02-17T04:31:42.160Z,148.18
2023-02-17T04:34:09.771Z,149.43
2023-02-17T04:36:56.453Z,155.23
2023-02-17T04:39:39.401Z,149.48
2023-02-17T04:48:46.734Z,149.55
2023-02-17T04:57:41.979Z,145.65
2023-02-17T05:03:22.373Z,131.85
2023-02-17T05:06:18.740Z,145.73
2023-02-17T05:09:14.328Z,140.63
2023-02-17T05:11:58.083Z,139.35
2023-02-17T05:14:56.818Z,151.88
2023-02-17T05:17:33.647Z,154.38
2023-02-17T05:20:27.447Z,150.23
2023-02-17T05:23:20.439Z,157.20
2023-02-17T05:26:54.212Z,160.27
2023-02-17T05:29:18.476Z,190.65
2023-02-17T05:31:56.408Z,183.18
2023-02-17T05:44:32.603Z,193.68
2023-02-17T05:47:03.057Z,182.55
2023-02-17T05:50:00.666Z,185.95
2023-02-17T05:53:02.179Z,178.02
2023-02-17T05:55:58.016Z,177.02
2023-02-17T06:02:04.527Z,196.48
2023-02-17T06:04:32.066Z,307.98
2023-02-17T06:06:59.249Z,313.58
2023-02-17T06:09:26.427Z,315.05
2023-02-17T06:11:53.946Z,229.48
2023-02-17T06:14:21.620Z,225.50
2023-02-17T06:16:51.452Z,218.13
2023-02-17T06:19:23.985Z,217.40
2023-02-17T06:21:55.638Z,251.35
2023-02-17T06:24:29.938Z,244.98
2023-02-17T06:26:57.049Z,246.13
2023-02-17T06:29:24.183Z,264.88
2023-02-17T06:31:51.465Z,256.08
2023-02-17T06:34:19.596Z,266.52
2023-02-17T06:36:46.862Z,221.40
2023-02-17T06:39:14.483Z,211.25
2023-02-17T06:41:42.755Z,193.68
2023-02-17T06:44:09.918Z,218.63
2023-02-17T06:46:37.109Z,202.43
2023-02-17T06:49:04.531Z,187.00
2023-02-17T06:51:31.751Z,197.38
2023-02-17T06:53:59.025Z,177.18
2023-02-17T06:56:26.161Z,194.73
2023-02-17T06:58:53.568Z,186.02
2023-02-17T07:01:22.601Z,161.57
2023-02-17T07:03:49.901Z,174.88
2023-02-17T07:06:17.143Z,183.80
2023-02-17T07:08:44.364Z,173.43
2023-02-17T07:11:12.751Z,181.00
2023-02-17T07:13:41.175Z,187.88
2023-02-17T07:16:09.870Z,189.07
2023-02-17T07:18:40.239Z,184.48
2023-02-17T07:21:09.054Z,173.60
2023-02-17T07:23:37.059Z,179.70
2023-02-17T07:26:06.356Z,171.70
2023-02-17T07:28:33.710Z,160.40
2023-02-17T07:31:11.390Z,156.15
2023-02-17T07:33:39.304Z,159.45
2023-02-17T07:36:08.785Z,159.48
2023-02-17T07:38:36.370Z,160.40
2023-02-17T07:41:31.173Z,163.57
2023-02-17T07:43:58.498Z,160.35
2023-02-17T07:46:26.329Z,165.82
2023-02-17T07:48:54.812Z,174.90
2023-02-17T07:51:22.841Z,183.73
2023-02-17T07:53:51.190Z,172.23
2023-02-17T07:56:19.954Z,171.18
2023-02-17T07:58:47.283Z,166.45
2023-02-17T08:01:17.355Z,169.27
2023-02-17T08:03:44.791Z,149.90
2023-02-17T08:06:13.257Z,156.43
2023-02-17T08:08:59.291Z,159.30
2023-02-17T08:11:47.654Z,132.90
2023-02-17T08:14:16.382Z,142.13
2023-02-17T08:16:43.596Z,135.85
2023-02-17T08:19:10.826Z,139.65
2023-02-17T08:21:38.268Z,144.60
2023-02-17T08:24:05.561Z,135.40
2023-02-17T08:26:32.799Z,147.77
2023-02-17T08:29:00.982Z,151.70
2023-02-17T08:31:29.952Z,136.43
2023-02-17T08:33:59.713Z,136.93
2023-02-17T08:36:27.324Z,121.03
2023-02-17T08:38:54.866Z,122.82
2023-02-17T08:41:23.803Z,81.13
2023-02-17T08:43:51.422Z,69.72
2023-02-17T08:46:19.140Z,67.28
2023-02-17T08:48:47.029Z,65.25
2023-02-17T08:51:15.228Z,66.07
2023-02-17T08:53:43.378Z,72.50
2023-02-17T08:56:10.877Z,70.07
2023-02-17T08:58:38.080Z,73.63
2023-02-17T09:01:05.602Z,76.65
2023-02-17T09:03:35.272Z,74.10
2023-02-17T09:06:03.741Z,67.65
2023-02-17T09:08:31.177Z,78.07
2023-02-17T09:10:58.831Z,77.70
2023-02-17T09:13:27.076Z,73.95
2023-02-17T09:15:54.948Z,62.22
2023-02-17T09:18:22.796Z,69.53
2023-02-17T09:20:50.075Z,66.00
2023-02-17T09:23:17.746Z,74.55
2023-02-17T09:25:45.333Z,72.50
2023-02-17T09:28:14.193Z,73.45
2023-02-17T09:30:42.471Z,75.53
2023-02-17T09:33:09.968Z,73.97
2023-02-17T09:35:38.170Z,76.80
2023-02-17T09:38:07.530Z,77.53
2023-02-17T09:40:48.389Z,74.50
2023-02-17T09:43:18.044Z,73.57
2023-02-17T09:45:49.167Z,78.13
2023-02-17T09:48:18.496Z,71.65
2023-02-17T09:50:50.806Z,70.85
2023-02-17T09:53:26.749Z,71.70
2023-02-17T09:55:55.078Z,67.72
2023-02-17T09:58:26.252Z,71.20
2023-02-17T10:01:02.418Z,71.55
2023-02-17T10:03:33.199Z,80.28
2023-02-17T10:06:07.039Z,76.78
2023-02-17T10:08:37.069Z,72.55
2023-02-17T10:11:31.008Z,74.60
2023-02-17T10:14:00.710Z,72.50
2023-02-17T10:16:33.474Z,69.43
2023-02-17T10:19:13.771Z,80.05
2023-02-17T10:21:45.849Z,76.50
2023-02-17T10:24:13.981Z,78.05
2023-02-17T10:26:53.564Z,70.75
2023-02-17T10:29:31.415Z,72.70
2023-02-17T10:32:09.026Z,79.03
2023-02-17T10:34:37.778Z,73.90
2023-02-17T10:37:11.226Z,81.70
2023-02-17T10:39:38.301Z,69.47
2023-02-17T10:42:05.782Z,79.88
2023-02-17T10:44:35.156Z,77.20
2023-02-17T10:47:02.270Z,73.32
2023-02-17T10:49:31.190Z,75.43
2023-02-17T10:52:24.444Z,74.07
2023-02-17T10:54:57.588Z,73.40
2023-02-17T10:57:27.087Z,75.22
2023-02-17T10:59:54.373Z,71.90
2023-02-17T11:02:40.428Z,74.95
2023-02-17T11:05:07.859Z,74.65
2023-02-17T11:07:42.070Z,70.55
2023-02-17T11:10:23.198Z,76.68
2023-02-17T11:12:50.814Z,75.13
2023-02-17T11:15:22.849Z,68.32
2023-02-17T11:17:50.209Z,74.30
2023-02-17T11:20:18.141Z,74.43
2023-02-17T11:22:49.731Z,71.03
2023-02-17T11:25:22.902Z,69.85
2023-02-17T11:27:57.269Z,70.20
2023-02-17T11:30:25.177Z,69.18
2023-02-17T11:32:52.355Z,66.80
2023-02-17T11:35:31.561Z,63.72
2023-02-17T11:38:02.725Z,64.35
2023-02-17T11:40:31.610Z,63.15
2023-02-17T11:43:02.759Z,59.53
2023-02-17T11:45:32.819Z,61.40
2023-02-17T11:48:08.450Z,66.18
2023-02-17T11:50:41.971Z,70.03
2023-02-17T11:53:20.686Z,64.55
2023-02-17T11:56:06.845Z,68.32
2023-02-17T11:58:37.239Z,59.03
2023-02-17T12:01:18.238Z,63.67
2023-02-17T12:03:45.309Z,67.03
2023-02-17T12:06:21.732Z,67.18
2023-02-17T12:08:48.808Z,66.63
2023-02-17T12:11:37.221Z,68.95
2023-02-17T12:14:23.005Z,65.57
2023-02-17T12:16:56.597Z,69.30
2023-02-17T12:19:38.026Z,65.07
2023-02-17T12:22:23.461Z,68.75
2023-02-17T12:24:53.901Z,72.72
2023-02-17T12:29:54.182Z,69.13
2023-02-17T12:32:26.765Z,80.63
2023-02-17T12:34:59.422Z,76.22
2023-02-17T12:37:29.545Z,76.68
2023-02-17T12:40:05.195Z,76.03
2023-02-17T12:42:35.144Z,77.93
2023-02-17T12:45:07.214Z,67.07
2023-02-17T12:47:39.545Z,69.38
2023-02-17T12:50:18.938Z,65.90
2023-02-17T12:52:49.462Z,61.15
2023-02-17T12:58:12.673Z,68.28
2023-02-17T13:00:42.939Z,69.15
2023-02-17T13:03:10.758Z,64.85
2023-02-17T13:05:43.887Z,60.83
2023-02-17T13:08:19.648Z,62.35
2023-02-17T13:10:46.796Z,62.00
2023-02-17T13:13:26.173Z,57.90
2023-02-17T13:16:23.216Z,58.72
2023-02-17T13:18:52.104Z,58.67
2023-02-17T13:21:24.750Z,66.13
2023-02-17T13:24:14.126Z,59.75
2023-02-17T13:26:42.640Z,62.33
2023-02-17T13:29:33.446Z,62.22
2023-02-17T13:32:02.409Z,57.85
2023-02-17T13:34:29.721Z,60.30
2023-02-17T13:36:56.870Z,57.50
2023-02-17T13:39:29.647Z,65.72
2023-02-17T13:41:58.103Z,54.15
2023-02-17T13:44:25.158Z,48.67
2023-02-17T13:46:53.000Z,51.45
2023-02-17T13:49:23.012Z,47.58
2023-02-17T13:51:50.316Z,48.05
2023-02-17T13:54:21.099Z,53.03
2023-02-17T13:56:52.145Z,53.13
2023-02-17T13:59:25.233Z,45.20
2023-02-17T14:01:54.953Z,49.30
2023-02-17T14:04:25.324Z,52.50
2023-02-17T14:06:53.328Z,55.00
2023-02-17T14:09:21.964Z,54.70
2023-02-17T14:11:50.822Z,54.80
2023-02-17T14:14:18.030Z,58.17
2023-02-17T14:16:45.731Z,58.17
2023-02-17T14:19:17.029Z,60.75
2023-02-17T14:21:45.372Z,59.30
2023-02-17T14:24:47.758Z,55.88
2023-02-17T14:27:14.896Z,62.67
2023-02-17T14:29:43.869Z,58.90
2023-02-17T14:32:30.067Z,56.22
2023-02-17T14:35:12.074Z,53.28
2023-02-17T14:37:41.290Z,45.45
2023-02-17T14:40:16.027Z,50.53
2023-02-17T14:42:43.977Z,50.30
2023-02-17T14:45:12.681Z,49.35
2023-02-17T14:47:40.175Z,53.90
2023-02-17T14:50:09.302Z,78.05
2023-02-17T14:52:45.917Z,48.28
2023-02-17T14:55:16.128Z,51.08
2023-02-17T14:57:44.751Z,50.35
2023-02-17T15:00:16.102Z,56.25
2023-02-17T15:02:43.345Z,41.75
2023-02-17T15:05:10.568Z,50.33
2023-02-17T15:07:37.913Z,50.45
2023-02-17T15:10:12.332Z,43.20
2023-02-17T15:12:39.511Z,43.88
2023-02-17T15:15:09.029Z,40.70
2023-02-17T15:17:36.242Z,42.87
2023-02-17T15:20:05.596Z,56.65
2023-02-17T15:22:33.882Z,51.70
2023-02-17T15:25:01.244Z,52.38
2023-02-17T15:27:28.430Z,54.85
2023-02-17T15:29:55.988Z,47.63
2023-02-17T15:32:26.661Z,51.92
2023-02-17T15:34:53.794Z,54.90
2023-02-17T15:37:21.009Z,56.83
2023-02-17T15:39:49.738Z,51.72
2023-02-17T15:42:24.980Z,62.58
2023-02-17T15:44:52.734Z,47.03
2023-02-17T15:47:20.684Z,52.53
2023-02-17T15:49:47.999Z,47.97
2023-02-17T15:52:15.685Z,80.15
2023-02-17T15:54:43.628Z,58.17
2023-02-17T15:57:22.046Z,51.58
2023-02-17T15:59:49.397Z,52.90
2023-02-17T16:02:21.760Z,51.90
2023-02-17T16:04:52.374Z,49.60
2023-02-17T16:07:19.471Z,51.33
2023-02-17T16:09:46.560Z,59.22
2023-02-17T16:12:18.406Z,55.70
2023-02-17T16:14:46.037Z,59.33
2023-02-17T16:17:14.949Z,67.50
2023-02-17T16:19:42.268Z,54.92
2023-02-17T16:22:09.735Z,62.15
2023-02-17T16:24:39.334Z,59.47
2023-02-17T16:27:11.596Z,58.10
2023-02-17T16:29:38.982Z,55.03
2023-02-17T16:32:06.193Z,58.60
2023-02-17T16:34:34.628Z,65.15
2023-02-17T16:37:03.573Z,59.08
2023-02-17T16:39:30.778Z,60.33
2023-02-17T16:41:57.905Z,67.20
2023-02-17T16:44:25.796Z,66.60
2023-02-17T16:46:56.575Z,64.07
2023-02-17T16:49:28.377Z,65.22
2023-02-17T16:51:55.592Z,61.63
2023-02-17T16:54:22.804Z,63.38
2023-02-17T16:56:51.471Z,65.75
2023-02-17T16:59:19.983Z,66.55
2023-02-17T17:01:47.788Z,65.65
2023-02-17T17:04:18.527Z,59.90
2023-02-17T17:06:47.530Z,60.58
2023-02-17T17:09:18.925Z,64.18
2023-02-17T17:11:46.195Z,58.95
2023-02-17T17:14:13.378Z,64.90
2023-02-17T17:16:42.165Z,63.25
2023-02-17T17:19:11.837Z,63.20
2023-02-17T17:21:38.942Z,61.60
2023-02-17T17:24:06.217Z,63.67
2023-02-17T17:26:39.862Z,63.20
2023-02-17T17:29:07.975Z,64.13
2023-02-17T17:31:42.687Z,65.95
2023-02-17T17:34:11.662Z,65.97
2023-02-17T17:36:43.470Z,64.15
2023-02-17T17:39:28.832Z,68.03
2023-02-17T17:41:57.635Z,74.38
2023-02-17T17:44:27.334Z,69.85
2023-02-17T17:46:54.554Z,77.88
2023-02-17T17:49:21.743Z,69.20
2023-02-17T17:51:48.960Z,72.00
2023-02-17T17:54:16.103Z,70.32
2023-02-17T17:56:43.767Z,75.53
2023-02-17T17:59:11.973Z,74.88
2023-02-17T18:01:39.362Z,77.78
2023-02-17T18:04:08.831Z,77.18
2023-02-17T18:06:40.759Z,79.07
2023-02-17T18:09:10.089Z,85.78
2023-02-17T18:11:39.159Z,92.90
2023-02-17T18:14:11.097Z,98.03
2023-02-17T18:16:40.520Z,90.53
2023-02-17T18:19:09.014Z,99.93
2023-02-17T18:21:36.196Z,96.68
2023-02-17T18:24:04.225Z,96.15
2023-02-17T18:26:31.407Z,106.00
2023-02-17T18:28:58.902Z,98.32
2023-02-17T18:31:27.585Z,98.20
2023-02-17T18:33:57.787Z,94.28
2023-02-17T18:36:26.768Z,87.03
2023-02-17T18:38:53.947Z,102.85
2023-02-17T18:41:25.031Z,93.38
2023-02-17T18:43:52.441Z,95.35
2023-02-17T18:46:20.234Z,95.65
2023-02-17T18:48:47.446Z,79.38
2023-02-17T18:51:15.570Z,73.82
2023-02-17T18:53:42.830Z,69.35
2023-02-17T18:56:14.679Z,65.10
2023-02-17T18:58:42.172Z,63.47
2023-02-17T19:01:15.148Z,63.08
2023-02-17T19:03:42.328Z,61.75
2023-02-17T19:06:10.686Z,62.10
2023-02-17T19:08:37.846Z,61.92
2023-02-17T19:11:05.172Z,63.75
2023-02-17T19:13:32.500Z,64.38
2023-02-17T19:16:07.611Z,60.83
2023-02-17T19:18:34.989Z,55.85
2023-02-17T19:21:02.701Z,52.25
2023-02-17T19:23:29.889Z,54.58
2023-02-17T19:25:57.232Z,54.03
2023-02-17T19:28:24.682Z,51.13
2023-02-17T19:30:51.884Z,48.55
2023-02-17T19:33:19.062Z,44.00
2023-02-17T19:35:46.271Z,51.08
2023-02-17T19:38:13.595Z,47.20
2023-02-17T19:40:41.200Z,50.00
2023-02-17T19:43:08.451Z,53.72
2023-02-17T19:45:36.361Z,45.47
2023-02-17T19:48:03.600Z,44.72
2023-02-17T19:50:30.744Z,51.13
2023-02-17T19:52:57.952Z,44.00
2023-02-17T19:55:25.217Z,49.30
2023-02-17T19:57:53.101Z,52.17
2023-02-17T20:00:20.667Z,43.08
2023-02-17T20:02:47.968Z,43.33
2023-02-17T20:05:15.376Z,43.05
2023-02-17T20:07:42.554Z,48.10
2023-02-17T20:10:10.825Z,46.28
2023-02-17T20:12:38.373Z,39.95
2023-02-17T20:15:06.140Z,48.60
2023-02-17T20:17:33.320Z,47.17
2023-02-17T20:20:00.508Z,41.75
2023-02-17T20:22:27.628Z,45.15
2023-02-17T20:24:54.797Z,45.15
2023-02-17T20:27:21.908Z,48.40
2023-02-17T20:29:49.058Z,44.72
2023-02-17T20:32:16.332Z,50.53
2023-02-17T20:34:44.086Z,44.63
2023-02-17T20:37:12.113Z,44.67
2023-02-17T20:39:40.332Z,53.33
2023-02-17T20:42:07.604Z,53.22
2023-02-17T20:44:34.941Z,51.63
2023-02-17T20:47:02.365Z,53.03
2023-02-17T20:49:29.532Z,55.70
2023-02-17T20:51:56.860Z,50.28
2023-02-17T20:54:25.903Z,47.72
2023-02-17T20:56:53.094Z,45.85
2023-02-17T20:59:20.732Z,52.45
2023-02-17T21:01:48.406Z,45.83
2023-02-17T21:04:15.677Z,44.30
2023-02-17T21:06:43.288Z,43.15
2023-02-17T21:09:14.640Z,47.05
2023-02-17T21:11:41.854Z,41.50
2023-02-17T21:14:09.042Z,45.28
2023-02-17T21:16:36.260Z,42.15
2023-02-17T21:19:03.886Z,42.92
2023-02-17T21:21:31.575Z,47.75
2023-02-17T21:23:59.688Z,42.70
2023-02-17T21:26:27.452Z,38.03
2023-02-17T21:28:54.883Z,41.88
2023-02-17T21:31:22.222Z,38.25
2023-02-17T21:33:49.405Z,44.22
2023-02-17T21:36:17.937Z,43.17
2023-02-17T21:38:45.443Z,47.28
2023-02-17T21:41:14.983Z,43.03
2023-02-17T21:44:01.182Z,45.43
2023-02-17T21:46:30.219Z,41.22
2023-02-17T21:48:58.396Z,36.97
2023-02-17T21:51:25.733Z,35.92
2023-02-17T21:53:53.134Z,36.08
2023-02-17T21:56:21.219Z,37.42
2023-02-17T21:58:49.225Z,41.00
2023-02-17T22:01:16.603Z,36.13
2023-02-17T22:03:43.919Z,38.83
2023-02-17T22:06:22.203Z,35.92
2023-02-17T22:08:49.930Z,45.05
2023-02-17T22:11:18.549Z,37.67
2023-02-17T22:13:46.112Z,38.85
2023-02-17T22:16:13.306Z,36.83
2023-02-17T22:18:40.793Z,41.53
2023-02-17T22:21:09.888Z,37.38
2023-02-17T22:23:37.457Z,36.97
2023-02-17T22:26:09.961Z,41.88
2023-02-17T22:28:37.257Z,36.75
2023-02-17T22:31:05.369Z,34.65
2023-02-17T22:33:32.694Z,38.28
2023-02-17T22:36:08.050Z,36.30
2023-02-17T22:38:35.742Z,37.47
2023-02-17T22:41:06.892Z,37.58
2023-02-17T22:43:36.014Z,37.20
2023-02-17T22:46:03.826Z,32.03
2023-02-17T22:48:31.508Z,38.03
2023-02-17T22:50:58.771Z,35.35
2023-02-17T22:53:25.941Z,31.30
2023-02-17T22:55:53.742Z,34.60
2023-02-17T22:58:21.546Z,30.38
2023-02-17T23:00:48.858Z,31.02
2023-02-17T23:03:17.112Z,31.98
2023-02-17T23:05:44.306Z,31.52
2023-02-17T23:08:11.790Z,33.90
2023-02-17T23:10:42.671Z,29.60
2023-02-17T23:13:10.389Z,29.05
2023-02-17T23:15:41.514Z,30.95
2023-02-17T23:18:20.219Z,31.27
2023-02-17T23:20:49.070Z,26.80
2023-02-17T23:23:16.812Z,30.02
2023-02-17T23:25:49.173Z,27.58
2023-02-17T23:28:17.090Z,28.90
2023-02-17T23:30:44.389Z,32.28
2023-02-17T23:33:11.526Z,26.38
2023-02-17T23:35:45.026Z,25.05
2023-02-17T23:38:14.219Z,27.20
2023-02-17T23:40:42.045Z,25.27
2023-02-17T23:43:09.472Z,25.02
2023-02-17T23:45:38.510Z,23.90
2023-02-17T23:48:05.963Z,24.17
2023-02-17T23:50:33.549Z,25.83
2023-02-17T23:53:00.657Z,15.32
2023-02-17T23:55:27.762Z,14.15
2023-02-17T23:57:55.051Z,12.48
